createdAt,value
2017-11-18T00:00:19.771Z,37.93
2017-11-18T00:02:48.221Z,39.33
2017-11-18T00:05:17.434Z,40.60
2017-11-18T00:07:46.103Z,38.60
2017-11-18T00:10:15.300Z,36.53
2017-11-18T00:12:44.509Z,39.10
2017-11-18T00:15:14.402Z,38.83
2017-11-18T00:17:42.844Z,36.87
2017-11-18T00:20:11.387Z,35.57
2017-11-18T00:22:40.638Z,30.20
2017-11-18T00:25:09.089Z,28.33
2017-11-18T00:27:37.653Z,29.30
2017-11-18T00:30:06.866Z,33.20
2017-11-18T00:32:36.047Z,30.63
2017-11-18T00:35:05.264Z,29.63
2017-11-18T00:37:33.776Z,32.23
2017-11-18T00:40:01.557Z,32.43
2017-11-18T00:42:30.021Z,29.50
2017-11-18T00:44:58.113Z,29.53
2017-11-18T00:47:26.584Z,30.70
2017-11-18T00:49:55.022Z,33.00
2017-11-18T00:52:24.444Z,29.90
2017-11-18T00:54:52.901Z,32.03
2017-11-18T00:57:22.133Z,32.87
2017-11-18T00:59:50.556Z,30.90
2017-11-18T01:02:18.984Z,29.03
2017-11-18T01:04:47.447Z,30.13
2017-11-18T01:07:16.663Z,28.23
2017-11-18T01:09:45.904Z,30.10
2017-11-18T01:12:14.393Z,28.43
2017-11-18T01:14:42.849Z,29.37
2017-11-18T01:17:11.277Z,29.07
2017-11-18T01:19:39.784Z,28.30
2017-11-18T01:22:08.976Z,30.27
2017-11-18T01:24:38.361Z,28.10
2017-11-18T01:27:06.960Z,30.00
2017-11-18T01:29:36.181Z,26.90
2017-11-18T01:32:04.620Z,28.77
2017-11-18T01:34:32.904Z,26.63
2017-11-18T01:37:02.134Z,27.53
2017-11-18T01:39:31.325Z,27.70
2017-11-18T01:42:00.533Z,29.67
2017-11-18T01:44:29.724Z,26.53
2017-11-18T01:46:58.938Z,26.13
2017-11-18T01:49:28.164Z,27.13
2017-11-18T01:51:56.597Z,28.27
2017-11-18T01:54:25.048Z,29.20
2017-11-18T01:56:54.393Z,25.83
2017-11-18T01:59:23.584Z,25.10
2017-11-18T02:01:52.791Z,25.30
2017-11-18T02:04:20.913Z,29.97
2017-11-18T02:06:49.350Z,25.60
2017-11-18T02:09:18.284Z,25.43
2017-11-18T02:11:46.736Z,25.90
2017-11-18T02:14:15.249Z,25.80
2017-11-18T02:16:43.696Z,27.30
2017-11-18T02:19:12.251Z,27.13
2017-11-18T02:21:40.694Z,26.30
2017-11-18T02:24:08.612Z,24.47
2017-11-18T02:26:37.159Z,26.03
2017-11-18T02:29:06.528Z,25.20
2017-11-18T02:31:34.305Z,24.87
2017-11-18T02:34:02.085Z,25.10
2017-11-18T02:36:30.576Z,25.13
2017-11-18T02:38:59.011Z,24.83
2017-11-18T02:41:28.573Z,23.93
2017-11-18T02:43:57.022Z,24.20
2017-11-18T02:46:25.108Z,25.17
2017-11-18T02:48:53.226Z,23.10
2017-11-18T02:51:21.329Z,24.30
2017-11-18T02:53:49.470Z,22.80
2017-11-18T02:56:17.561Z,25.77
2017-11-18T02:58:46.105Z,22.43
2017-11-18T03:01:13.897Z,24.20
2017-11-18T03:03:42.358Z,23.67
2017-11-18T03:06:10.921Z,25.07
2017-11-18T03:08:39.357Z,24.63
2017-11-18T03:11:08.240Z,26.17
2017-11-18T03:13:36.710Z,25.40
2017-11-18T03:16:05.336Z,27.90
2017-11-18T03:18:33.791Z,27.50
2017-11-18T03:21:02.532Z,28.90
2017-11-18T03:23:30.970Z,29.73
2017-11-18T03:26:01.089Z,26.50
2017-11-18T03:28:30.223Z,28.77
2017-11-18T03:30:58.650Z,26.30
2017-11-18T03:33:27.092Z,30.17
2017-11-18T03:35:55.632Z,27.70
2017-11-18T03:38:24.844Z,30.37
2017-11-18T03:40:54.054Z,29.30
2017-11-18T03:43:22.668Z,30.90
2017-11-18T03:45:51.142Z,28.03
2017-11-18T03:48:19.587Z,29.70
2017-11-18T03:50:48.784Z,28.80
2017-11-18T03:53:18.011Z,28.60
2017-11-18T03:55:46.684Z,28.53
2017-11-18T03:58:15.147Z,27.87
2017-11-18T04:00:48.675Z,32.20
2017-11-18T04:03:17.142Z,30.40
2017-11-18T04:05:46.356Z,30.40
2017-11-18T04:08:14.780Z,29.47
2017-11-18T04:10:43.241Z,29.60
2017-11-18T04:13:11.341Z,31.33
2017-11-18T04:15:39.477Z,30.63
2017-11-18T04:18:08.104Z,31.87
2017-11-18T04:20:36.446Z,27.67
2017-11-18T04:23:04.566Z,29.10
2017-11-18T04:25:33.033Z,26.63
2017-11-18T04:28:01.664Z,28.57
2017-11-18T04:30:30.880Z,29.00
2017-11-18T04:32:59.329Z,28.57
2017-11-18T04:35:28.260Z,26.07
2017-11-18T04:37:56.753Z,28.10
2017-11-18T04:40:25.201Z,23.77
2017-11-18T04:42:54.415Z,25.13
2017-11-18T04:45:22.503Z,22.40
2017-11-18T04:47:50.954Z,19.93
2017-11-18T04:50:19.049Z,18.73
2017-11-18T04:52:47.501Z,15.90
2017-11-18T04:55:16.720Z,15.83
2017-11-18T04:57:44.493Z,16.67
2017-11-18T05:00:12.596Z,15.90
2017-11-18T05:02:41.040Z,18.63
2017-11-18T05:05:09.472Z,16.63
2017-11-18T05:07:37.904Z,15.20
2017-11-18T05:10:05.668Z,16.40
2017-11-18T05:12:34.108Z,16.40
2017-11-18T05:15:02.754Z,15.30
2017-11-18T05:17:31.199Z,16.70
2017-11-18T05:20:00.405Z,16.47
2017-11-18T05:22:29.596Z,17.07
2017-11-18T05:24:58.788Z,17.30
2017-11-18T05:27:26.896Z,15.97
2017-11-18T05:29:55.344Z,14.80
2017-11-18T05:32:23.886Z,16.27
2017-11-18T05:34:52.318Z,17.43
2017-11-18T05:37:21.537Z,15.93
2017-11-18T05:39:50.007Z,18.43
2017-11-18T05:42:18.972Z,18.80
2017-11-18T05:44:47.407Z,16.80
2017-11-18T05:47:15.880Z,17.20
2017-11-18T05:49:44.599Z,16.33
2017-11-18T05:52:13.048Z,18.70
2017-11-18T05:54:41.479Z,19.50
2017-11-18T05:57:09.933Z,17.63
2017-11-18T05:59:38.034Z,18.20
2017-11-18T06:02:06.140Z,17.93
2017-11-18T06:04:35.390Z,20.20
2017-11-18T06:07:03.829Z,17.43
2017-11-18T06:09:32.263Z,14.00
2017-11-18T06:12:00.929Z,17.30
2017-11-18T06:14:29.377Z,17.77
2017-11-18T06:16:58.581Z,18.17
2017-11-18T06:19:27.032Z,17.93
2017-11-18T06:21:55.269Z,17.57
2017-11-18T06:24:23.713Z,16.27
2017-11-18T06:26:53.001Z,17.70
2017-11-18T06:29:21.530Z,18.43
2017-11-18T06:31:50.889Z,17.27
2017-11-18T06:34:20.114Z,18.40
2017-11-18T06:36:49.525Z,17.50
2017-11-18T06:39:17.972Z,16.03
2017-11-18T06:41:46.404Z,16.27
2017-11-18T06:44:14.896Z,17.07
2017-11-18T06:46:43.348Z,17.83
2017-11-18T06:49:12.754Z,17.50
2017-11-18T06:51:41.205Z,15.00
2017-11-18T06:54:09.638Z,14.43
2017-11-18T06:56:38.085Z,15.83
2017-11-18T06:59:07.280Z,15.70
2017-11-18T07:01:35.793Z,16.63
2017-11-18T07:04:04.226Z,15.63
2017-11-18T07:06:32.670Z,13.90
2017-11-18T07:09:01.125Z,14.43
2017-11-18T07:11:29.554Z,14.53
2017-11-18T07:13:57.992Z,14.30
2017-11-18T07:16:26.416Z,14.00
2017-11-18T07:18:54.872Z,12.03
2017-11-18T07:21:23.309Z,12.13
2017-11-18T07:23:52.528Z,12.40
2017-11-18T07:26:20.989Z,13.00
2017-11-18T07:28:50.197Z,14.67
2017-11-18T07:31:19.452Z,14.93
2017-11-18T07:33:47.908Z,14.33
2017-11-18T07:36:16.361Z,14.83
2017-11-18T07:38:45.561Z,12.80
2017-11-18T07:41:14.440Z,13.10
2017-11-18T07:43:42.872Z,14.10
2017-11-18T07:46:11.324Z,12.83
2017-11-18T07:48:40.709Z,12.40
2017-11-18T07:51:09.916Z,13.27
2017-11-18T07:53:39.116Z,14.17
2017-11-18T07:56:08.342Z,14.10
2017-11-18T07:58:36.797Z,12.63
2017-11-18T08:01:06.021Z,15.27
2017-11-18T08:03:34.501Z,14.60
2017-11-18T08:06:02.989Z,13.27
2017-11-18T08:08:31.460Z,13.00
2017-11-18T08:10:59.886Z,12.90
2017-11-18T08:13:28.350Z,11.53
2017-11-18T08:15:56.825Z,12.60
2017-11-18T08:18:25.277Z,13.20
2017-11-18T08:20:53.716Z,12.93
2017-11-18T08:23:22.172Z,12.77
2017-11-18T08:25:50.810Z,13.77
2017-11-18T08:28:19.248Z,15.10
2017-11-18T08:30:47.670Z,16.37
2017-11-18T08:33:16.112Z,17.33
2017-11-18T08:35:44.567Z,15.80
2017-11-18T08:38:12.988Z,16.23
2017-11-18T08:40:41.453Z,16.20
2017-11-18T08:43:10.552Z,15.80
2017-11-18T08:45:39.033Z,15.43
2017-11-18T08:48:07.470Z,16.83
2017-11-18T08:50:36.677Z,15.90
2017-11-18T08:53:05.888Z,15.13
2017-11-18T08:55:33.720Z,14.83
2017-11-18T08:58:02.172Z,14.80
2017-11-18T09:00:30.261Z,15.40
2017-11-18T09:02:58.706Z,14.70
2017-11-18T09:05:27.145Z,14.43
2017-11-18T09:07:55.712Z,15.07
2017-11-18T09:10:24.155Z,15.60
2017-11-18T09:12:52.608Z,15.70
2017-11-18T09:15:21.837Z,15.23
2017-11-18T09:17:50.292Z,13.60
2017-11-18T09:20:19.517Z,12.97
2017-11-18T09:22:47.961Z,11.13
2017-11-18T09:25:17.313Z,12.03
2017-11-18T09:27:45.768Z,11.30
2017-11-18T09:30:14.198Z,12.30
2017-11-18T09:32:42.649Z,9.73
2017-11-18T09:35:10.520Z,9.93
2017-11-18T09:37:38.980Z,8.30
2017-11-18T09:40:07.415Z,6.50
2017-11-18T09:42:35.856Z,7.67
2017-11-18T09:45:04.285Z,7.30
2017-11-18T09:47:32.729Z,5.50
2017-11-18T09:50:01.161Z,5.27
2017-11-18T09:52:29.601Z,8.10
2017-11-18T09:54:58.040Z,5.53
2017-11-18T09:57:27.245Z,4.90
2017-11-18T09:59:55.696Z,5.17
2017-11-18T10:02:24.132Z,5.43
2017-11-18T10:04:52.573Z,5.50
2017-11-18T10:07:21.457Z,5.77
2017-11-18T10:09:50.088Z,5.80
2017-11-18T10:12:18.539Z,5.40
2017-11-18T10:14:47.741Z,5.80
2017-11-18T10:17:16.956Z,7.07
2017-11-18T10:19:45.401Z,6.37
2017-11-18T10:22:13.873Z,6.50
2017-11-18T10:24:42.321Z,7.70
2017-11-18T10:27:10.756Z,7.20
2017-11-18T10:29:39.993Z,5.83
2017-11-18T10:32:08.452Z,6.30
2017-11-18T10:34:37.658Z,4.77
2017-11-18T10:37:05.917Z,5.57
2017-11-18T10:39:35.159Z,5.77
2017-11-18T10:42:03.237Z,5.90
2017-11-18T10:44:31.656Z,5.23
2017-11-18T10:47:00.108Z,5.13
2017-11-18T10:49:28.527Z,5.20
2017-11-18T10:51:57.749Z,5.23
2017-11-18T10:54:26.183Z,5.47
2017-11-18T10:56:54.624Z,5.00
2017-11-18T10:59:22.720Z,4.87
2017-11-18T11:01:51.157Z,4.20
2017-11-18T11:04:20.014Z,5.00
2017-11-18T11:06:48.478Z,4.60
2017-11-18T11:09:16.593Z,5.30
2017-11-18T11:11:44.723Z,5.43
2017-11-18T11:14:13.160Z,4.87
2017-11-18T11:16:42.188Z,5.73
2017-11-18T11:19:10.609Z,5.33
2017-11-18T11:21:39.064Z,5.00
2017-11-18T11:24:07.537Z,5.90
2017-11-18T11:26:36.016Z,6.20
2017-11-18T11:29:04.446Z,5.47
2017-11-18T11:31:32.882Z,4.87
2017-11-18T11:34:01.353Z,4.30
2017-11-18T11:36:29.804Z,4.83
2017-11-18T11:38:59.018Z,4.43
2017-11-18T11:41:27.931Z,3.70
2017-11-18T11:43:56.389Z,3.43
2017-11-18T11:46:25.268Z,3.67
2017-11-18T11:48:54.483Z,3.80
2017-11-18T11:51:23.628Z,3.13
2017-11-18T11:53:52.053Z,4.50
2017-11-18T11:56:20.736Z,4.47
2017-11-18T11:58:49.584Z,4.27
2017-11-18T12:01:18.045Z,5.17
2017-11-18T12:03:46.540Z,4.07
2017-11-18T12:06:14.764Z,5.03
2017-11-18T12:08:43.962Z,4.57
2017-11-18T12:11:13.333Z,5.20
2017-11-18T12:13:41.758Z,5.10
2017-11-18T12:16:10.974Z,5.23
2017-11-18T12:18:39.409Z,4.50
2017-11-18T12:21:07.216Z,4.90
2017-11-18T12:23:36.434Z,5.83
2017-11-18T12:26:04.870Z,4.53
2017-11-18T12:28:34.185Z,5.30
2017-11-18T12:31:03.385Z,5.17
2017-11-18T12:33:32.584Z,6.07
2017-11-18T12:36:01.775Z,5.07
2017-11-18T12:38:30.973Z,6.30
2017-11-18T12:40:59.400Z,5.27
2017-11-18T12:43:27.864Z,5.83
2017-11-18T12:45:55.704Z,4.77
2017-11-18T12:48:24.925Z,5.30
2017-11-18T12:50:53.481Z,5.23
2017-11-18T12:53:21.919Z,5.70
2017-11-18T12:55:50.385Z,5.63
2017-11-18T12:58:18.842Z,5.53
2017-11-18T13:00:47.912Z,5.27
2017-11-18T13:03:16.418Z,4.90
2017-11-18T13:05:45.642Z,5.77
2017-11-18T13:08:13.764Z,5.50
2017-11-18T13:10:42.192Z,5.67
2017-11-18T13:13:10.637Z,6.17
2017-11-18T13:15:39.104Z,5.57
2017-11-18T13:18:07.601Z,6.43
2017-11-18T13:20:36.065Z,5.20
2017-11-18T13:23:04.516Z,5.50
2017-11-18T13:25:33.054Z,6.30
2017-11-18T13:28:01.490Z,5.53
2017-11-18T13:30:30.000Z,7.00
2017-11-18T13:32:58.613Z,7.60
2017-11-18T13:35:27.815Z,7.30
2017-11-18T13:37:57.031Z,6.57
2017-11-18T13:40:26.257Z,7.50
2017-11-18T13:42:54.359Z,7.27
2017-11-18T13:45:22.799Z,7.03
2017-11-18T13:47:51.316Z,6.60
2017-11-18T13:50:20.668Z,7.50
2017-11-18T13:52:49.877Z,7.60
2017-11-18T13:55:19.166Z,7.80
2017-11-18T13:57:48.364Z,6.90
2017-11-18T14:00:17.623Z,6.70
2017-11-18T14:02:45.766Z,7.30
2017-11-18T14:05:13.534Z,7.40
2017-11-18T14:07:41.978Z,6.90
2017-11-18T14:10:10.404Z,6.63
2017-11-18T14:12:38.890Z,6.93
2017-11-18T14:15:07.336Z,7.13
2017-11-18T14:17:36.576Z,7.10
2017-11-18T14:20:05.361Z,6.77
2017-11-18T14:22:34.341Z,7.20
2017-11-18T14:25:03.151Z,7.20
2017-11-18T14:27:32.021Z,6.40
2017-11-18T14:30:00.834Z,7.27
2017-11-18T14:32:29.804Z,7.03
2017-11-18T14:34:58.722Z,6.67
2017-11-18T14:37:27.789Z,6.80
2017-11-18T14:39:55.898Z,7.00
2017-11-18T14:42:24.007Z,7.10
2017-11-18T14:44:52.459Z,7.40
2017-11-18T14:47:21.391Z,8.10
2017-11-18T14:49:50.164Z,8.30
2017-11-18T14:52:18.272Z,7.90
2017-11-18T14:54:46.204Z,7.80
2017-11-18T14:57:14.461Z,8.20
2017-11-18T14:59:42.744Z,8.47
2017-11-18T15:02:10.348Z,7.60
2017-11-18T15:04:39.068Z,7.73
2017-11-18T15:07:06.990Z,8.27
2017-11-18T15:09:35.717Z,7.97
2017-11-18T15:12:03.627Z,8.40
2017-11-18T15:14:36.780Z,7.90
2017-11-18T15:17:09.926Z,8.60
2017-11-18T15:19:54.139Z,8.30
2017-11-18T15:22:22.373Z,8.20
2017-11-18T15:24:56.950Z,8.50
2017-11-18T15:27:30.868Z,7.50
2017-11-18T15:29:59.769Z,7.93
2017-11-18T15:32:31.568Z,7.40
2017-11-18T15:35:02.032Z,8.10
2017-11-18T15:37:35.693Z,7.33
2017-11-18T15:40:03.595Z,7.85
2017-11-18T15:42:32.249Z,7.75
2017-11-18T15:45:11.797Z,7.28
2017-11-18T15:47:42.861Z,6.95
2017-11-18T15:50:13.857Z,6.03
2017-11-18T15:52:49.147Z,6.78
2017-11-18T15:55:34.718Z,6.60
2017-11-18T15:58:05.428Z,7.47
2017-11-18T16:00:49.394Z,7.25
2017-11-18T16:03:20.012Z,5.97
2017-11-18T16:05:48.703Z,7.37
2017-11-18T16:08:27.261Z,6.18
2017-11-18T16:10:55.528Z,6.70
2017-11-18T16:13:24.350Z,6.20
2017-11-18T16:15:52.716Z,6.60
2017-11-18T16:18:20.937Z,6.25
2017-11-18T16:20:49.325Z,6.55
2017-11-18T16:23:18.533Z,6.87
2017-11-18T16:25:47.397Z,8.15
2017-11-18T16:28:15.456Z,7.40
2017-11-18T16:30:43.253Z,7.40
2017-11-18T16:33:11.960Z,7.18
2017-11-18T16:35:40.367Z,7.32
2017-11-18T16:38:09.517Z,7.65
2017-11-18T16:40:37.583Z,7.10
2017-11-18T16:43:06.035Z,6.57
2017-11-18T16:45:33.839Z,6.90
2017-11-18T16:48:02.638Z,7.23
2017-11-18T16:50:31.494Z,7.03
2017-11-18T16:52:59.558Z,6.87
2017-11-18T16:55:27.336Z,6.57
2017-11-18T16:57:56.065Z,7.20
2017-11-18T17:00:23.840Z,7.10
2017-11-18T17:02:51.961Z,7.53
2017-11-18T17:05:19.729Z,7.90
2017-11-18T17:07:47.517Z,7.90
2017-11-18T17:10:16.084Z,7.80
2017-11-18T17:12:43.867Z,7.70
2017-11-18T17:15:12.845Z,8.53
2017-11-18T17:17:40.633Z,8.00
2017-11-18T17:20:09.191Z,7.20
2017-11-18T17:22:37.313Z,7.73
2017-11-18T17:25:07.293Z,8.20
2017-11-18T17:27:35.497Z,7.17
2017-11-18T17:30:03.636Z,8.67
2017-11-18T17:32:31.473Z,7.83
2017-11-18T17:34:59.275Z,8.57
2017-11-18T17:37:27.048Z,8.43
2017-11-18T17:39:55.603Z,8.10
2017-11-18T17:42:23.463Z,7.87
2017-11-18T17:44:51.240Z,8.60
2017-11-18T17:47:19.056Z,7.40
2017-11-18T17:49:47.156Z,7.32
2017-11-18T17:52:15.307Z,7.70
2017-11-18T17:54:43.526Z,7.40
2017-11-18T17:57:11.585Z,7.43
2017-11-18T17:59:40.728Z,8.47
2017-11-18T18:02:09.293Z,8.93
2017-11-18T18:04:37.069Z,7.30
2017-11-18T18:07:04.857Z,7.90
2017-11-18T18:09:33.651Z,8.10
2017-11-18T18:12:01.787Z,7.63
2017-11-18T18:14:29.903Z,8.03
2017-11-18T18:16:58.348Z,7.90
2017-11-18T18:19:26.889Z,7.63
2017-11-18T18:21:55.366Z,7.77
2017-11-18T18:24:23.973Z,6.90
2017-11-18T18:26:52.421Z,7.03
2017-11-18T18:29:20.848Z,6.20
2017-11-18T18:31:49.305Z,6.30
2017-11-18T18:34:17.762Z,6.33
2017-11-18T18:36:46.969Z,7.70
2017-11-18T18:39:15.456Z,6.70
2017-11-18T18:41:43.910Z,7.07
2017-11-18T18:44:12.789Z,6.97
2017-11-18T18:46:40.927Z,6.90
2017-11-18T18:49:09.368Z,6.10
2017-11-18T18:51:38.213Z,6.53
2017-11-18T18:54:06.787Z,6.93
2017-11-18T18:56:34.561Z,6.80
2017-11-18T18:59:03.025Z,6.27
2017-11-18T19:01:31.484Z,6.90
2017-11-18T19:03:59.937Z,5.73
2017-11-18T19:06:28.420Z,7.50
2017-11-18T19:08:57.713Z,6.47
2017-11-18T19:11:26.146Z,6.97
2017-11-18T19:13:54.690Z,6.50
2017-11-18T19:16:23.533Z,6.47
2017-11-18T19:18:52.006Z,6.63
2017-11-18T19:21:20.454Z,6.60
2017-11-18T19:23:49.682Z,6.93
2017-11-18T19:26:18.181Z,5.60
2017-11-18T19:28:46.854Z,6.07
2017-11-18T19:31:15.310Z,6.23
2017-11-18T19:33:44.519Z,6.10
2017-11-18T19:36:12.978Z,6.53
2017-11-18T19:38:42.200Z,5.07
2017-11-18T19:41:12.254Z,6.10
2017-11-18T19:43:40.737Z,6.33
2017-11-18T19:46:09.188Z,5.70
2017-11-18T19:48:37.474Z,5.30
2017-11-18T19:51:05.929Z,5.10
2017-11-18T19:53:35.140Z,7.67
2017-11-18T19:56:03.584Z,7.77
2017-11-18T19:58:32.026Z,6.80
2017-11-18T20:01:00.503Z,6.53
2017-11-18T20:03:28.942Z,5.30
2017-11-18T20:05:56.736Z,6.70
2017-11-18T20:08:24.644Z,5.87
2017-11-18T20:10:53.101Z,6.50
2017-11-18T20:13:21.572Z,6.30
2017-11-18T20:15:49.367Z,5.90
2017-11-18T20:18:17.838Z,6.67
2017-11-18T20:20:46.297Z,6.10
2017-11-18T20:23:15.190Z,6.20
2017-11-18T20:25:43.052Z,6.03
2017-11-18T20:28:11.590Z,5.87
2017-11-18T20:30:40.836Z,5.60
2017-11-18T20:33:10.229Z,6.20
2017-11-18T20:35:38.896Z,6.35
2017-11-18T20:38:07.701Z,6.12
2017-11-18T20:40:36.911Z,6.57
2017-11-18T20:43:06.156Z,7.40
2017-11-18T20:45:34.648Z,7.20
2017-11-18T20:48:03.389Z,7.45
2017-11-18T20:50:32.182Z,8.52
2017-11-18T20:53:00.911Z,9.35
2017-11-18T20:55:29.632Z,6.40
2017-11-18T20:57:58.374Z,7.50
2017-11-18T21:00:27.140Z,7.65
2017-11-18T21:02:55.856Z,7.22
2017-11-18T21:05:25.351Z,6.70
2017-11-18T21:07:53.816Z,6.70
2017-11-18T21:10:22.548Z,6.93
2017-11-18T21:12:51.244Z,6.40
2017-11-18T21:15:19.651Z,8.02
2017-11-18T21:17:48.382Z,7.07
2017-11-18T21:20:17.915Z,7.28
2017-11-18T21:22:46.657Z,6.28
2017-11-18T21:25:15.402Z,7.60
2017-11-18T21:27:45.509Z,7.68
2017-11-18T21:30:14.220Z,7.15
2017-11-18T21:32:42.941Z,6.65
2017-11-18T21:35:11.650Z,7.20
2017-11-18T21:37:41.169Z,7.37
2017-11-18T21:40:09.986Z,7.55
2017-11-18T21:42:38.731Z,7.35
2017-11-18T21:45:08.206Z,7.25
2017-11-18T21:47:36.929Z,7.10
2017-11-18T21:50:06.459Z,7.60
2017-11-18T21:52:35.179Z,7.05
2017-11-18T21:55:03.610Z,7.25
2017-11-18T21:57:33.123Z,7.75
2017-11-18T22:00:02.622Z,7.03
2017-11-18T22:02:32.329Z,7.20
2017-11-18T22:05:01.818Z,8.02
2017-11-18T22:07:30.559Z,7.20
2017-11-18T22:09:59.331Z,7.12
2017-11-18T22:12:28.810Z,7.80
2017-11-18T22:14:57.533Z,7.20
2017-11-18T22:17:26.705Z,7.72
2017-11-18T22:19:56.205Z,8.60
2017-11-18T22:22:24.897Z,8.68
2017-11-18T22:24:54.052Z,8.35
2017-11-18T22:27:22.772Z,8.02
2017-11-18T22:29:51.131Z,7.87
2017-11-18T22:32:20.018Z,7.87
2017-11-18T22:34:48.719Z,7.82
2017-11-18T22:37:17.624Z,6.90
2017-11-18T22:39:46.339Z,7.25
2017-11-18T22:42:14.797Z,8.80
2017-11-18T22:44:43.508Z,7.20
2017-11-18T22:47:12.270Z,8.40
2017-11-18T22:49:41.000Z,8.73
2017-11-18T22:52:09.457Z,8.20
2017-11-18T22:54:38.954Z,8.02
2017-11-18T22:57:07.860Z,7.25
2017-11-18T22:59:36.623Z,7.20
2017-11-18T23:02:05.330Z,7.93
2017-11-18T23:04:34.825Z,7.10
2017-11-18T23:07:03.533Z,7.28
2017-11-18T23:09:33.031Z,7.30
2017-11-18T23:12:02.493Z,6.85
2017-11-18T23:14:31.223Z,6.37
2017-11-18T23:17:00.701Z,6.70
2017-11-18T23:19:29.400Z,6.75
2017-11-18T23:21:58.153Z,7.32
2017-11-18T23:24:26.854Z,6.28
2017-11-18T23:26:55.567Z,6.57
2017-11-18T23:29:24.309Z,6.85
2017-11-18T23:31:53.045Z,6.45
2017-11-18T23:34:21.739Z,6.18
2017-11-18T23:36:50.196Z,6.23
2017-11-18T23:39:18.916Z,5.80
2017-11-18T23:41:48.509Z,6.65
2017-11-18T23:44:17.215Z,5.65
2017-11-18T23:46:46.333Z,5.50
2017-11-18T23:49:14.700Z,5.25
2017-11-18T23:51:43.888Z,6.50
2017-11-18T23:54:13.413Z,5.12
2017-11-18T23:56:43.071Z,4.75
2017-11-18T23:59:11.741Z,4.78
